createdAt,value
2017-02-26T00:06:16.622Z,0
2017-02-26T00:16:16.616Z,0
2017-02-26T00:26:16.520Z,0
2017-02-26T00:36:16.606Z,0
2017-02-26T00:46:16.675Z,0
2017-02-26T00:56:16.636Z,0
2017-02-26T01:06:16.570Z,0
2017-02-26T01:16:16.639Z,0
2017-02-26T01:26:16.604Z,0
2017-02-26T01:36:16.664Z,0
2017-02-26T01:46:16.584Z,0
2017-02-26T01:56:16.593Z,0
2017-02-26T02:06:16.640Z,0
2017-02-26T02:16:16.695Z,0
2017-02-26T02:26:16.686Z,0
2017-02-26T02:36:16.744Z,0
2017-02-26T02:46:16.710Z,0
2017-02-26T02:56:16.638Z,0
2017-02-26T03:06:16.668Z,0
2017-02-26T03:16:16.686Z,0
2017-02-26T03:26:16.714Z,0
2017-02-26T03:36:17.096Z,0
2017-02-26T03:46:16.696Z,0
2017-02-26T03:56:16.692Z,0
2017-02-26T04:06:16.780Z,0
2017-02-26T04:16:16.725Z,0
2017-02-26T04:26:16.811Z,0
2017-02-26T04:36:16.749Z,0
2017-02-26T04:46:16.751Z,0
2017-02-26T04:56:16.848Z,0
2017-02-26T05:06:16.770Z,0
2017-02-26T05:16:16.743Z,0
2017-02-26T05:26:16.771Z,0
2017-02-26T05:36:16.818Z,0
2017-02-26T05:46:16.862Z,0
2017-02-26T05:56:16.834Z,4
2017-02-26T06:06:16.806Z,16
2017-02-26T06:16:16.839Z,64
2017-02-26T06:26:16.837Z,164
2017-02-26T06:36:16.850Z,292
2017-02-26T06:46:16.853Z,556
2017-02-26T06:56:16.850Z,1000
2017-02-26T07:06:16.881Z,616
2017-02-26T07:16:16.895Z,1224
2017-02-26T07:26:16.896Z,1416
2017-02-26T07:36:16.927Z,1564
2017-02-26T07:46:16.921Z,1212
2017-02-26T07:56:16.912Z,3412
2017-02-26T08:06:16.909Z,5676
2017-02-26T08:16:16.990Z,4208
2017-02-26T08:26:16.994Z,4732
2017-02-26T08:36:16.983Z,5904
2017-02-26T08:46:16.948Z,6916
2017-02-26T08:56:17.050Z,8800
2017-02-26T09:06:17.006Z,5200
2017-02-26T09:16:17.106Z,7136
2017-02-26T09:26:16.977Z,5036
2017-02-26T09:36:16.997Z,5400
2017-02-26T09:46:17.050Z,7032
2017-02-26T09:56:17.127Z,6356
2017-02-26T10:06:17.201Z,6056
2017-02-26T10:16:17.159Z,12684
2017-02-26T10:26:17.056Z,8128
2017-02-26T10:36:17.058Z,7980
2017-02-26T10:46:17.133Z,7732
2017-02-26T10:56:17.074Z,9648
2017-02-26T11:06:17.163Z,9040
2017-02-26T11:16:17.221Z,8912
2017-02-26T11:26:17.205Z,11960
2017-02-26T11:36:17.151Z,11624
2017-02-26T11:46:17.237Z,8120
2017-02-26T11:56:17.153Z,6336
2017-02-26T12:06:17.327Z,7140
2017-02-26T12:16:17.179Z,10908
2017-02-26T12:26:17.267Z,12684
2017-02-26T12:36:17.263Z,11872
2017-02-26T12:46:17.323Z,9648
2017-02-26T12:56:17.236Z,9724
2017-02-26T13:06:17.167Z,7836
2017-02-26T13:16:17.206Z,8600
2017-02-26T13:26:17.202Z,9584
2017-02-26T13:36:17.227Z,10760
2017-02-26T13:46:17.215Z,7112
2017-02-26T13:56:17.284Z,7892
2017-02-26T14:06:17.266Z,9796
2017-02-26T14:16:17.237Z,8544
2017-02-26T14:26:17.262Z,7916
2017-02-26T14:36:17.337Z,6152
2017-02-26T14:46:17.316Z,6760
2017-02-26T14:56:17.319Z,6652
2017-02-26T15:06:17.381Z,6316
2017-02-26T15:16:17.420Z,4268
2017-02-26T15:26:18.867Z,3212
2017-02-26T15:36:17.363Z,3332
2017-02-26T15:46:17.339Z,3272
2017-02-26T15:56:17.372Z,1244
2017-02-26T16:06:17.470Z,1764
2017-02-26T16:16:17.416Z,1228
2017-02-26T16:26:17.407Z,644
2017-02-26T16:36:17.993Z,500
2017-02-26T16:46:18.225Z,184
2017-02-26T16:56:20.938Z,124
2017-02-26T17:06:17.417Z,88
2017-02-26T17:16:25.357Z,32
2017-02-26T17:26:17.475Z,4
2017-02-26T17:36:17.479Z,4
2017-02-26T17:46:17.471Z,0
2017-02-26T17:56:17.486Z,0
2017-02-26T18:06:18.770Z,0
2017-02-26T18:16:20.287Z,0
2017-02-26T18:26:18.252Z,0
2017-02-26T18:36:17.582Z,0
2017-02-26T18:46:17.606Z,0
2017-02-26T18:56:17.622Z,0
2017-02-26T19:06:17.547Z,4
2017-02-26T19:16:17.579Z,0
2017-02-26T19:26:17.612Z,4
2017-02-26T19:36:18.296Z,0
2017-02-26T19:46:17.609Z,0
2017-02-26T19:56:17.603Z,0
2017-02-26T20:06:18.337Z,0
